createdAt,value
2018-12-06T00:01:38.243Z,11.17
2018-12-06T00:04:04.111Z,9.60
2018-12-06T00:06:29.978Z,10.43
2018-12-06T00:08:55.849Z,10.10
2018-12-06T00:11:21.714Z,8.93
2018-12-06T00:13:47.630Z,9.10
2018-12-06T00:16:13.501Z,10.50
2018-12-06T00:18:39.374Z,8.13
2018-12-06T00:21:05.237Z,8.77
2018-12-06T00:23:31.124Z,9.03
2018-12-06T00:25:57.007Z,9.63
2018-12-06T00:28:22.906Z,11.33
2018-12-06T00:30:48.798Z,9.23
2018-12-06T00:33:14.651Z,9.70
2018-12-06T00:35:40.725Z,9.77
2018-12-06T00:38:06.595Z,9.10
2018-12-06T00:40:32.458Z,9.83
2018-12-06T00:42:58.400Z,9.60
2018-12-06T00:45:24.296Z,8.83
2018-12-06T00:47:50.167Z,8.90
2018-12-06T00:50:16.038Z,9.87
2018-12-06T00:52:41.895Z,9.27
2018-12-06T00:55:07.779Z,10.03
2018-12-06T00:57:33.638Z,8.90
2018-12-06T00:59:59.506Z,10.30
2018-12-06T01:02:25.360Z,8.43
2018-12-06T01:04:51.247Z,9.17
2018-12-06T01:07:24.122Z,9.77
2018-12-06T01:09:56.923Z,8.87
2018-12-06T01:12:23.108Z,18.17
2018-12-06T01:14:48.947Z,15.23
2018-12-06T01:17:14.798Z,16.10
2018-12-06T01:19:40.646Z,15.27
2018-12-06T01:22:06.498Z,26.50
2018-12-06T01:24:32.376Z,20.60
2018-12-06T01:26:58.251Z,12.47
2018-12-06T01:29:24.123Z,13.90
2018-12-06T01:31:50.004Z,12.83
2018-12-06T01:34:15.876Z,11.17
2018-12-06T01:36:41.743Z,11.70
2018-12-06T01:39:07.632Z,12.97
2018-12-06T01:41:33.519Z,12.90
2018-12-06T01:44:00.661Z,11.90
2018-12-06T01:46:26.522Z,11.37
2018-12-06T01:48:52.371Z,10.97
2018-12-06T01:51:18.211Z,11.10
2018-12-06T01:53:44.070Z,10.83
2018-12-06T01:56:09.927Z,10.90
2018-12-06T01:58:35.774Z,11.60
2018-12-06T02:01:01.651Z,11.40
2018-12-06T02:03:27.502Z,10.40
2018-12-06T02:05:53.387Z,11.30
2018-12-06T02:08:19.303Z,11.03
2018-12-06T02:10:45.204Z,10.37
2018-12-06T02:13:11.059Z,11.43
2018-12-06T02:15:36.927Z,10.20
2018-12-06T02:18:02.786Z,9.77
2018-12-06T02:20:28.681Z,11.20
2018-12-06T02:22:54.531Z,11.47
2018-12-06T02:25:20.405Z,10.17
2018-12-06T02:27:46.259Z,10.73
2018-12-06T02:30:12.227Z,11.00
2018-12-06T02:32:38.108Z,11.60
2018-12-06T02:35:04.091Z,11.40
2018-12-06T02:37:30.006Z,9.67
2018-12-06T02:39:55.845Z,9.67
2018-12-06T02:42:21.724Z,9.67
2018-12-06T02:44:47.606Z,10.27
2018-12-06T02:47:13.487Z,8.83
2018-12-06T02:49:39.307Z,11.70
2018-12-06T02:52:05.212Z,9.60
2018-12-06T02:54:31.066Z,9.70
2018-12-06T02:56:56.981Z,10.80
2018-12-06T02:59:22.823Z,9.83
2018-12-06T03:01:48.778Z,8.90
2018-12-06T03:04:14.635Z,9.10
2018-12-06T03:06:40.649Z,9.87
2018-12-06T03:09:06.649Z,9.80
2018-12-06T03:11:32.515Z,9.07
2018-12-06T03:13:58.407Z,8.20
2018-12-06T03:16:24.274Z,10.30
2018-12-06T03:18:50.268Z,8.93
2018-12-06T03:21:16.157Z,8.80
2018-12-06T03:23:42.026Z,8.47
2018-12-06T03:26:07.870Z,9.90
2018-12-06T03:28:33.770Z,10.43
2018-12-06T03:30:59.666Z,9.00
2018-12-06T03:33:25.558Z,10.50
2018-12-06T03:35:51.432Z,9.77
2018-12-06T03:38:17.275Z,8.60
2018-12-06T03:40:43.140Z,8.17
2018-12-06T03:43:09.015Z,9.60
2018-12-06T03:45:34.885Z,10.93
2018-12-06T03:48:00.766Z,10.27
2018-12-06T03:50:26.636Z,11.70
2018-12-06T03:52:52.493Z,9.03
2018-12-06T03:55:18.379Z,9.57
2018-12-06T03:57:44.243Z,10.17
2018-12-06T04:00:10.137Z,10.30
2018-12-06T04:02:36.011Z,10.70
2018-12-06T04:05:01.904Z,9.57
2018-12-06T04:07:27.746Z,10.90
2018-12-06T04:09:53.611Z,10.30
2018-12-06T04:12:19.588Z,10.23
2018-12-06T04:14:45.430Z,10.00
2018-12-06T04:17:11.299Z,9.90
2018-12-06T04:19:37.138Z,10.83
2018-12-06T04:22:02.990Z,10.90
2018-12-06T04:24:28.849Z,10.80
2018-12-06T04:26:54.761Z,11.13
2018-12-06T04:29:20.614Z,9.87
2018-12-06T04:31:46.475Z,10.90
2018-12-06T04:34:12.332Z,10.10
2018-12-06T04:36:38.218Z,10.87
2018-12-06T04:39:04.693Z,10.50
2018-12-06T04:41:30.563Z,11.17
2018-12-06T04:43:56.416Z,9.50
2018-12-06T04:46:22.279Z,11.53
2018-12-06T04:48:48.159Z,10.80
2018-12-06T04:51:14.100Z,10.90
2018-12-06T04:53:39.946Z,11.80
2018-12-06T04:56:05.880Z,11.67
2018-12-06T04:58:31.791Z,10.57
2018-12-06T05:00:57.671Z,14.07
2018-12-06T05:03:23.533Z,13.47
2018-12-06T05:05:49.365Z,13.23
2018-12-06T05:08:15.229Z,10.20
2018-12-06T05:10:41.068Z,12.10
2018-12-06T05:13:06.961Z,12.87
2018-12-06T05:15:32.811Z,10.80
2018-12-06T05:17:58.708Z,11.27
2018-12-06T05:20:24.583Z,11.93
2018-12-06T05:22:50.542Z,11.53
2018-12-06T05:25:16.394Z,10.80
2018-12-06T05:27:42.234Z,11.93
2018-12-06T05:30:08.524Z,10.87
2018-12-06T05:32:34.541Z,11.60
2018-12-06T05:35:00.545Z,11.47
2018-12-06T05:37:26.439Z,10.93
2018-12-06T05:39:52.295Z,11.30
2018-12-06T05:42:18.145Z,11.57
2018-12-06T05:44:44.010Z,11.07
2018-12-06T05:47:09.876Z,10.07
2018-12-06T05:49:35.691Z,11.10
2018-12-06T05:52:01.578Z,10.33
2018-12-06T05:54:27.425Z,9.20
2018-12-06T05:56:53.262Z,10.13
2018-12-06T05:59:19.152Z,10.80
2018-12-06T06:01:45.023Z,10.63
2018-12-06T06:04:10.891Z,9.83
2018-12-06T06:06:36.753Z,11.30
2018-12-06T06:09:04.682Z,11.73
2018-12-06T06:11:30.530Z,10.47
2018-12-06T06:13:56.536Z,11.37
2018-12-06T06:16:22.398Z,15.17
2018-12-06T06:18:48.252Z,14.57
2018-12-06T06:21:14.136Z,16.30
2018-12-06T06:23:39.966Z,18.87
2018-12-06T06:26:05.842Z,14.67
2018-12-06T06:28:31.698Z,19.97
2018-12-06T06:34:26.995Z,14.07
2018-12-06T06:36:52.890Z,10.67
2018-12-06T06:39:18.719Z,11.30
2018-12-06T06:41:44.579Z,10.90
2018-12-06T06:44:10.435Z,12.87
2018-12-06T06:46:36.312Z,10.80
2018-12-06T06:49:02.282Z,9.93
2018-12-06T06:51:28.242Z,11.43
2018-12-06T06:53:54.100Z,8.73
2018-12-06T06:56:19.944Z,11.40
2018-12-06T06:58:45.820Z,10.57
2018-12-06T07:01:11.765Z,11.60
2018-12-06T07:03:37.600Z,10.23
2018-12-06T07:06:03.456Z,10.03
2018-12-06T07:08:29.354Z,11.97
2018-12-06T07:10:55.206Z,9.33
2018-12-06T07:13:21.094Z,9.53
2018-12-06T07:15:46.946Z,8.77
2018-12-06T07:18:12.832Z,9.23
2018-12-06T07:20:38.709Z,9.50
2018-12-06T07:23:04.956Z,9.50
2018-12-06T07:25:30.855Z,9.20
2018-12-06T07:27:57.094Z,8.80
2018-12-06T07:30:22.986Z,8.33
2018-12-06T07:32:48.906Z,8.57
2018-12-06T07:35:14.747Z,8.77
2018-12-06T07:37:40.681Z,7.80
2018-12-06T07:40:06.673Z,7.60
2018-12-06T07:42:32.554Z,7.77
2018-12-06T07:44:58.532Z,8.50
2018-12-06T07:47:24.741Z,8.60
2018-12-06T07:49:50.634Z,7.93
2018-12-06T07:52:17.347Z,15.53
2018-12-06T07:54:43.250Z,18.57
2018-12-06T07:57:09.122Z,15.17
2018-12-06T07:59:35.001Z,11.07
2018-12-06T08:02:00.866Z,8.90
2018-12-06T08:04:26.732Z,8.40
2018-12-06T08:06:52.562Z,7.90
2018-12-06T08:09:18.517Z,7.80
2018-12-06T08:11:44.423Z,8.00
2018-12-06T08:14:10.678Z,7.80
2018-12-06T08:16:36.528Z,7.70
2018-12-06T08:19:02.525Z,7.50
2018-12-06T08:21:28.391Z,8.63
2018-12-06T08:23:54.265Z,7.73
2018-12-06T08:26:21.773Z,6.80
2018-12-06T08:28:47.646Z,6.50
2018-12-06T08:31:13.494Z,9.47
2018-12-06T08:33:39.339Z,18.90
2018-12-06T08:36:05.218Z,27.43
2018-12-06T08:38:31.083Z,8.43
2018-12-06T08:40:56.965Z,7.17
2018-12-06T08:43:22.819Z,8.20
2018-12-06T08:45:48.691Z,7.53
2018-12-06T08:48:14.531Z,7.47
2018-12-06T08:50:40.438Z,8.93
2018-12-06T08:53:06.298Z,8.50
2018-12-06T08:55:32.154Z,8.90
2018-12-06T08:57:58.073Z,9.47
2018-12-06T09:00:24.879Z,8.43
2018-12-06T09:02:50.826Z,8.70
2018-12-06T09:05:16.801Z,8.33
2018-12-06T09:07:42.788Z,8.27
2018-12-06T09:10:08.818Z,8.37
2018-12-06T09:12:41.870Z,8.93
2018-12-06T09:15:08.147Z,9.50
2018-12-06T09:17:34.036Z,8.57
2018-12-06T09:19:59.950Z,9.20
2018-12-06T09:22:25.811Z,9.37
2018-12-06T09:24:51.826Z,8.53
2018-12-06T09:27:17.812Z,7.47
2018-12-06T09:29:43.724Z,8.20
2018-12-06T09:32:09.611Z,8.80
2018-12-06T09:34:35.458Z,8.30
2018-12-06T09:37:01.365Z,8.97
2018-12-06T09:39:27.243Z,8.90
2018-12-06T09:41:53.106Z,10.13
2018-12-06T09:44:18.950Z,9.40
2018-12-06T09:46:44.804Z,8.80
2018-12-06T09:49:10.670Z,8.77
2018-12-06T09:51:36.535Z,8.50
2018-12-06T09:54:02.575Z,7.97
2018-12-06T09:56:28.739Z,7.90
2018-12-06T09:58:54.640Z,7.83
2018-12-06T10:01:20.553Z,7.50
2018-12-06T10:03:46.465Z,6.77
2018-12-06T10:06:12.380Z,7.20
2018-12-06T10:08:38.372Z,8.67
2018-12-06T10:11:04.226Z,8.07
2018-12-06T10:13:30.079Z,9.30
2018-12-06T10:15:55.946Z,9.90
2018-12-06T10:18:21.812Z,8.57
2018-12-06T10:20:47.712Z,8.20
2018-12-06T10:23:13.574Z,8.97
2018-12-06T10:25:39.429Z,8.57
2018-12-06T10:28:05.387Z,9.53
2018-12-06T10:30:31.239Z,7.97
2018-12-06T10:32:57.102Z,9.00
2018-12-06T10:35:23.350Z,8.63
2018-12-06T10:37:49.224Z,9.30
2018-12-06T10:40:15.121Z,10.27
2018-12-06T10:42:40.978Z,10.13
2018-12-06T10:45:06.913Z,9.33
2018-12-06T10:47:32.794Z,9.20
2018-12-06T10:49:58.872Z,8.90
2018-12-06T10:52:24.701Z,10.23
2018-12-06T10:54:50.567Z,10.23
2018-12-06T10:57:16.447Z,9.93
2018-12-06T10:59:42.335Z,9.50
2018-12-06T11:02:14.435Z,9.60
2018-12-06T11:04:43.199Z,9.57
2018-12-06T11:07:09.060Z,10.23
2018-12-06T11:09:34.987Z,11.37
2018-12-06T11:12:00.892Z,10.53
2018-12-06T11:14:26.785Z,9.60
2018-12-06T11:16:52.654Z,10.37
2018-12-06T11:19:18.529Z,11.83
2018-12-06T11:21:44.445Z,10.40
2018-12-06T11:24:10.445Z,10.73
2018-12-06T11:26:36.383Z,10.20
2018-12-06T11:29:02.270Z,9.63
2018-12-06T11:31:28.135Z,11.10
2018-12-06T11:33:54.230Z,10.57
2018-12-06T11:36:20.128Z,10.63
2018-12-06T11:38:46.005Z,10.80
2018-12-06T11:41:11.916Z,10.80
2018-12-06T11:43:37.792Z,9.83
2018-12-06T11:46:03.667Z,9.27
2018-12-06T11:48:29.565Z,11.63
2018-12-06T11:50:55.431Z,10.40
2018-12-06T11:53:21.302Z,10.00
2018-12-06T11:55:47.168Z,10.30
2018-12-06T11:58:13.060Z,10.70
2018-12-06T12:00:38.963Z,10.00
2018-12-06T12:03:04.977Z,10.33
2018-12-06T12:05:30.912Z,11.10
2018-12-06T12:07:56.782Z,10.43
2018-12-06T12:10:22.698Z,12.10
2018-12-06T12:12:48.588Z,12.90
2018-12-06T12:15:14.488Z,10.80
2018-12-06T12:17:40.492Z,10.40
2018-12-06T12:20:06.593Z,10.90
2018-12-06T12:22:32.718Z,11.10
2018-12-06T12:24:58.691Z,9.43
2018-12-06T12:27:24.669Z,9.93
2018-12-06T12:29:50.669Z,10.87
2018-12-06T12:32:16.594Z,11.63
2018-12-06T12:34:42.690Z,11.80
2018-12-06T12:37:08.745Z,8.10
2018-12-06T12:39:34.658Z,11.93
2018-12-06T12:42:00.574Z,9.43
2018-12-06T12:44:26.476Z,10.87
2018-12-06T12:46:52.424Z,12.20
2018-12-06T12:49:18.600Z,10.30
2018-12-06T12:51:44.797Z,10.37
2018-12-06T12:54:10.939Z,12.33
2018-12-06T12:56:37.159Z,11.63
2018-12-06T12:59:03.315Z,10.90
2018-12-06T13:01:29.526Z,11.50
2018-12-06T13:03:55.664Z,12.30
2018-12-06T13:06:21.681Z,10.37
2018-12-06T13:08:47.794Z,10.40
2018-12-06T13:11:13.931Z,11.60
2018-12-06T13:13:40.071Z,10.90
2018-12-06T13:16:06.240Z,12.33
2018-12-06T13:18:32.458Z,18.87
2018-12-06T13:20:58.395Z,17.87
2018-12-06T13:23:24.539Z,22.63
2018-12-06T13:25:50.674Z,15.67
2018-12-06T13:28:16.857Z,16.80
2018-12-06T13:30:43.059Z,21.13
2018-12-06T13:33:09.196Z,16.37
2018-12-06T13:35:35.384Z,12.87
2018-12-06T13:38:01.636Z,14.00
2018-12-06T13:40:27.851Z,13.03
2018-12-06T13:42:53.962Z,14.67
2018-12-06T13:45:20.065Z,13.93
2018-12-06T13:47:46.253Z,14.20
2018-12-06T13:50:12.389Z,13.67
2018-12-06T13:52:38.575Z,12.10
2018-12-06T13:55:04.939Z,14.20
2018-12-06T13:57:31.068Z,13.10
2018-12-06T13:59:57.062Z,13.53
2018-12-06T14:02:23.848Z,15.10
2018-12-06T14:04:49.920Z,14.30
2018-12-06T14:07:15.829Z,15.70
2018-12-06T14:09:41.730Z,17.13
2018-12-06T14:12:07.627Z,15.87
2018-12-06T14:14:33.492Z,15.00
2018-12-06T14:16:59.406Z,14.67
2018-12-06T14:19:25.264Z,14.50
2018-12-06T14:21:51.130Z,16.80
2018-12-06T14:24:16.989Z,17.20
2018-12-06T14:26:42.887Z,15.17
2018-12-06T14:29:08.759Z,17.30
2018-12-06T14:31:34.770Z,16.30
2018-12-06T14:34:00.667Z,15.43
2018-12-06T14:36:26.595Z,15.87
2018-12-06T14:38:52.481Z,16.80
2018-12-06T14:41:18.415Z,14.33
2018-12-06T14:43:44.509Z,16.73
2018-12-06T14:46:10.881Z,18.47
2018-12-06T14:48:36.888Z,20.27
2018-12-06T14:51:06.426Z,19.53
2018-12-06T14:53:32.369Z,18.20
2018-12-06T14:55:58.247Z,17.23
2018-12-06T14:58:24.103Z,16.47
2018-12-06T15:00:49.990Z,16.73
2018-12-06T15:03:15.940Z,16.33
2018-12-06T15:05:41.828Z,18.80
2018-12-06T15:08:07.719Z,18.60
2018-12-06T15:10:33.588Z,18.20
2018-12-06T15:12:59.498Z,19.17
2018-12-06T15:15:25.628Z,18.20
2018-12-06T15:17:51.516Z,19.10
2018-12-06T15:20:17.387Z,20.77
2018-12-06T15:22:43.263Z,25.83
2018-12-06T15:25:09.134Z,22.83
2018-12-06T15:27:35.342Z,22.33
2018-12-06T15:30:01.270Z,26.30
2018-12-06T15:32:27.168Z,21.90
2018-12-06T15:34:53.010Z,22.30
2018-12-06T15:37:18.957Z,23.27
2018-12-06T15:39:44.834Z,21.63
2018-12-06T15:42:10.710Z,20.90
2018-12-06T15:44:36.586Z,19.57
2018-12-06T15:47:02.528Z,20.13
2018-12-06T15:49:28.429Z,19.60
2018-12-06T15:51:54.345Z,19.60
2018-12-06T15:54:20.297Z,18.10
2018-12-06T15:56:46.234Z,17.83
2018-12-06T15:59:12.170Z,20.80
2018-12-06T16:01:38.124Z,20.40
2018-12-06T16:04:04.026Z,21.27
2018-12-06T16:06:29.912Z,22.70
2018-12-06T16:08:55.778Z,24.97
2018-12-06T16:11:21.640Z,30.60
2018-12-06T16:13:47.531Z,33.17
2018-12-06T16:16:13.463Z,28.77
2018-12-06T16:18:39.413Z,27.03
2018-12-06T16:21:05.309Z,29.80
2018-12-06T16:23:31.210Z,30.53
2018-12-06T16:25:57.245Z,27.97
2018-12-06T16:28:23.589Z,24.80
2018-12-06T16:30:49.463Z,23.70
2018-12-06T16:33:15.374Z,23.90
2018-12-06T16:35:41.342Z,25.57
2018-12-06T16:38:07.225Z,23.23
2018-12-06T16:40:33.131Z,21.30
2018-12-06T16:42:59.000Z,20.30
2018-12-06T16:45:24.928Z,22.60
2018-12-06T16:47:51.064Z,21.23
2018-12-06T16:50:16.971Z,23.40
2018-12-06T16:52:42.849Z,26.73
2018-12-06T16:55:08.703Z,35.10
2018-12-06T16:57:34.599Z,29.57
2018-12-06T17:00:00.564Z,21.47
2018-12-06T17:02:26.477Z,21.47
2018-12-06T17:04:52.391Z,22.57
2018-12-06T17:07:18.341Z,32.53
2018-12-06T17:09:44.332Z,31.63
2018-12-06T17:12:10.226Z,34.87
2018-12-06T17:14:36.110Z,33.60
2018-12-06T17:17:02.011Z,30.43
2018-12-06T17:19:28.777Z,27.90
2018-12-06T17:21:54.733Z,26.50
2018-12-06T17:24:20.626Z,23.77
2018-12-06T17:26:46.641Z,19.70
2018-12-06T17:29:19.574Z,23.00
2018-12-06T17:31:45.462Z,23.17
2018-12-06T17:34:11.388Z,24.87
2018-12-06T17:36:37.311Z,24.43
2018-12-06T17:39:05.198Z,22.53
2018-12-06T17:41:31.121Z,23.03
2018-12-06T17:43:57.106Z,25.00
2018-12-06T17:46:23.035Z,21.87
2018-12-06T17:48:48.978Z,24.00
2018-12-06T17:51:15.655Z,23.30
2018-12-06T17:53:41.614Z,22.53
2018-12-06T17:56:07.535Z,23.53
2018-12-06T17:58:33.564Z,24.10
2018-12-06T18:00:59.463Z,24.70
2018-12-06T18:03:25.479Z,26.60
2018-12-06T18:05:51.497Z,25.87
2018-12-06T18:08:17.445Z,26.00
2018-12-06T18:10:43.364Z,26.70
2018-12-06T18:13:09.319Z,25.60
2018-12-06T18:15:35.495Z,26.47
2018-12-06T18:18:01.446Z,25.63
2018-12-06T18:20:27.351Z,32.17
2018-12-06T18:22:53.330Z,26.70
2018-12-06T18:25:19.234Z,24.50
2018-12-06T18:30:38.071Z,28.43
2018-12-06T18:33:04.067Z,26.07
2018-12-06T18:35:29.963Z,23.93
2018-12-06T18:37:55.844Z,24.03
2018-12-06T18:40:21.728Z,22.27
2018-12-06T18:42:47.599Z,21.73
2018-12-06T18:45:13.472Z,22.03
2018-12-06T18:47:39.393Z,22.33
2018-12-06T18:50:05.403Z,24.50
2018-12-06T18:52:31.333Z,25.50
2018-12-06T18:54:57.231Z,25.80
2018-12-06T18:57:23.147Z,24.07
2018-12-06T18:59:49.170Z,24.97
2018-12-06T19:02:15.070Z,25.57
2018-12-06T19:04:41.016Z,29.30
2018-12-06T19:07:06.926Z,29.60
2018-12-06T19:09:32.801Z,27.73
2018-12-06T19:11:58.686Z,27.33
2018-12-06T19:14:24.573Z,24.27
2018-12-06T19:16:50.447Z,24.17
2018-12-06T19:19:16.367Z,24.80
2018-12-06T19:21:42.264Z,23.13
2018-12-06T19:24:08.179Z,23.43
2018-12-06T19:26:34.086Z,23.97
2018-12-06T19:29:00.543Z,23.70
2018-12-06T19:31:26.470Z,23.37
2018-12-06T19:33:52.373Z,23.33
2018-12-06T19:36:18.403Z,24.80
2018-12-06T19:38:44.307Z,25.37
2018-12-06T19:41:10.184Z,22.70
2018-12-06T19:43:36.055Z,23.60
2018-12-06T19:46:01.956Z,26.50
2018-12-06T19:48:27.891Z,30.50
2018-12-06T19:50:53.819Z,32.20
2018-12-06T19:53:19.808Z,29.90
2018-12-06T19:55:45.941Z,35.20
2018-12-06T19:58:11.996Z,37.27
2018-12-06T20:00:37.923Z,38.57
2018-12-06T20:03:03.888Z,40.37
2018-12-06T20:05:29.743Z,37.00
2018-12-06T20:07:55.653Z,37.97
2018-12-06T20:10:21.575Z,33.60
2018-12-06T20:12:47.517Z,34.47
2018-12-06T20:15:13.381Z,36.87
2018-12-06T20:17:39.306Z,34.53
2018-12-06T20:20:06.634Z,32.77
2018-12-06T20:22:32.643Z,36.63
2018-12-06T20:24:58.644Z,33.10
2018-12-06T20:27:24.696Z,34.90
2018-12-06T20:29:50.590Z,34.10
2018-12-06T20:32:16.466Z,32.40
2018-12-06T20:34:42.394Z,31.27
2018-12-06T20:37:08.281Z,32.37
2018-12-06T20:39:34.193Z,31.33
2018-12-06T20:42:00.229Z,34.73
2018-12-06T20:44:26.219Z,34.70
2018-12-06T20:46:52.171Z,30.77
2018-12-06T20:49:18.078Z,32.53
2018-12-06T20:51:43.979Z,31.90
2018-12-06T20:54:10.078Z,31.00
2018-12-06T20:59:36.023Z,31.80
2018-12-06T21:02:01.958Z,34.77
2018-12-06T21:04:27.861Z,31.70
2018-12-06T21:06:54.152Z,29.10
2018-12-06T21:09:20.040Z,32.97
2018-12-06T21:11:45.927Z,31.87
2018-12-06T21:14:11.904Z,32.27
2018-12-06T21:16:37.931Z,33.53
2018-12-06T21:19:03.977Z,32.33
2018-12-06T21:21:29.915Z,30.73
2018-12-06T21:23:55.829Z,28.77
2018-12-06T21:26:21.738Z,35.63
2018-12-06T21:28:47.712Z,34.90
2018-12-06T21:31:13.579Z,33.60
2018-12-06T21:33:39.464Z,36.10
2018-12-06T21:36:05.566Z,40.13
2018-12-06T21:38:31.519Z,46.67
2018-12-06T21:40:57.461Z,41.87
2018-12-06T21:43:23.364Z,38.93
2018-12-06T21:45:49.290Z,41.43
2018-12-06T21:48:15.445Z,42.13
2018-12-06T21:50:41.336Z,43.33
2018-12-06T21:53:07.247Z,46.10
2018-12-06T21:55:33.127Z,49.27
2018-12-06T21:57:59.117Z,50.53
2018-12-06T22:00:25.025Z,51.37
2018-12-06T22:02:51.061Z,52.27
2018-12-06T22:05:17.111Z,55.13
2018-12-06T22:07:43.118Z,54.33
2018-12-06T22:10:09.052Z,56.20
2018-12-06T22:12:34.993Z,57.47
2018-12-06T22:15:02.930Z,51.73
2018-12-06T22:17:29.047Z,48.53
2018-12-06T22:19:55.136Z,43.07
2018-12-06T22:22:21.009Z,46.77
2018-12-06T22:24:46.927Z,42.70
2018-12-06T22:27:12.813Z,43.30
2018-12-06T22:29:38.682Z,43.87
2018-12-06T22:32:04.551Z,40.13
2018-12-06T22:34:30.449Z,41.57
2018-12-06T22:36:56.416Z,41.87
2018-12-06T22:39:22.282Z,42.10
2018-12-06T22:41:48.178Z,39.13
2018-12-06T22:44:14.014Z,35.50
2018-12-06T22:46:39.923Z,36.40
2018-12-06T22:49:05.903Z,36.63
2018-12-06T22:51:31.766Z,38.33
2018-12-06T22:53:57.630Z,36.90
2018-12-06T22:56:23.527Z,33.93
2018-12-06T22:58:49.395Z,31.97
2018-12-06T23:01:17.370Z,30.13
2018-12-06T23:03:43.258Z,29.67
2018-12-06T23:06:09.306Z,29.10
2018-12-06T23:08:35.193Z,31.50
2018-12-06T23:11:01.199Z,29.43
2018-12-06T23:13:27.063Z,27.23
2018-12-06T23:15:52.926Z,29.77
2018-12-06T23:18:18.815Z,27.97
2018-12-06T23:20:44.868Z,25.40
2018-12-06T23:23:17.599Z,25.97
2018-12-06T23:25:43.458Z,25.87
2018-12-06T23:28:09.332Z,20.67
2018-12-06T23:30:35.195Z,18.07
2018-12-06T23:33:01.079Z,17.40
2018-12-06T23:35:26.945Z,18.23
2018-12-06T23:37:52.786Z,16.20
2018-12-06T23:40:18.695Z,15.20
2018-12-06T23:42:44.552Z,15.83
2018-12-06T23:45:10.486Z,15.80
2018-12-06T23:47:36.955Z,13.00
2018-12-06T23:50:04.082Z,12.83
2018-12-06T23:52:29.947Z,12.60
2018-12-06T23:54:55.878Z,12.50
2018-12-06T23:57:21.751Z,11.67
2018-12-06T23:59:47.658Z,12.10
